Time,TemperatureF,DewpointF,PressureIn,WindDirection,WindDirectionDegrees,WindSpeedMPH,WindSpeedGustMPH,Humidity,HourlyPrecipIn,Conditions,Clouds,dailyrainin,SoftwareType,DateUTC
2013-08-29 00:01:00,69.5,64.1,29.96,ENE,68,0.0,0.0,83,2.59,,,0.20,WUHU216HW,2013-08-29 04:01:00,
2013-08-29 00:02:00,69.5,64.1,29.96,ENE,68,0.0,0.0,83,2.59,,,0.20,WUHU216HW,2013-08-29 04:02:00,
2013-08-29 00:07:00,69.3,63.9,29.96,ENE,68,0.0,0.0,83,2.59,,,0.20,WUHU216HW,2013-08-29 04:07:00,
2013-08-29 00:12:00,69.1,63.7,29.96,ENE,68,0.0,0.0,83,2.59,,,0.20,WUHU216HW,2013-08-29 04:12:00,
2013-08-29 00:17:00,69.1,63.7,29.97,SW,225,0.7,1.1,83,2.59,,,0.20,WUHU216HW,2013-08-29 04:17:00,
2013-08-29 00:22:00,68.9,63.9,29.97,SW,225,0.0,1.1,84,2.59,,,0.20,WUHU216HW,2013-08-29 04:22:00,
2013-08-29 00:27:00,68.8,63.7,29.97,SW,225,0.0,0.4,84,2.59,,,0.20,WUHU216HW,2013-08-29 04:27:00,
2013-08-29 00:32:00,68.6,63.5,29.97,SW,225,0.0,0.0,84,2.59,,,0.20,WUHU216HW,2013-08-29 04:32:00,
2013-08-29 00:37:00,68.6,63.5,29.97,SSW,203,0.0,0.0,84,2.59,,,0.20,WUHU216HW,2013-08-29 04:37:00,
2013-08-29 00:42:00,68.4,63.4,29.96,SSE,158,0.0,0.4,84,2.59,,,0.20,WUHU216HW,2013-08-29 04:42:00,
2013-08-29 00:47:00,68.4,63.4,29.96,SSE,158,0.0,0.4,84,2.59,,,0.20,WUHU216HW,2013-08-29 04:47:00,
2013-08-29 00:52:00,68.2,63.2,29.97,SSE,158,0.4,0.9,84,2.59,,,0.20,WUHU216HW,2013-08-29 04:52:00,
2013-08-29 00:57:00,68.0,63.0,29.96,SE,135,0.9,0.9,84,2.59,,,0.20,WUHU216HW,2013-08-29 04:57:00,
2013-08-29 01:02:00,68.0,63.0,29.97,SE,135,0.7,0.9,84,2.59,,,0.40,WUHU216HW,2013-08-29 05:02:00,
2013-08-29 01:07:00,67.9,62.8,29.97,SE,135,0.2,0.9,84,2.59,,,0.40,WUHU216HW,2013-08-29 05:07:00,
2013-08-29 01:12:00,67.9,62.8,29.96,SE,135,0.0,0.9,84,2.59,,,0.40,WUHU216HW,2013-08-29 05:12:00,
2013-08-29 01:16:00,67.7,62.6,29.96,SE,135,0.0,0.2,84,2.59,,,0.40,WUHU216HW,2013-08-29 05:16:00,
2013-08-29 01:21:00,67.5,62.5,29.96,SE,135,0.0,0.0,84,2.59,,,0.40,WUHU216HW,2013-08-29 05:21:00,
2013-08-29 01:26:00,67.3,62.3,29.96,SSW,203,0.0,0.0,84,2.59,,,0.40,WUHU216HW,2013-08-29 05:26:00,
2013-08-29 01:31:00,67.0,61.9,29.97,WSW,248,0.7,1.1,84,2.59,,,0.40,WUHU216HW,2013-08-29 05:31:00,
2013-08-29 01:36:00,66.8,62.1,29.97,WSW,248,0.0,1.1,85,2.59,,,0.40,WUHU216HW,2013-08-29 05:36:00,
2013-08-29 01:41:00,66.6,61.9,29.97,WSW,248,0.0,0.7,85,2.59,,,0.40,WUHU216HW,2013-08-29 05:41:00,
2013-08-29 01:46:00,66.6,61.9,29.97,SSE,158,0.0,0.0,85,2.59,,,0.40,WUHU216HW,2013-08-29 05:46:00,
2013-08-29 01:51:00,66.6,61.9,29.97,SSE,158,0.4,0.4,85,2.59,,,0.40,WUHU216HW,2013-08-29 05:51:00,
2013-08-29 01:56:00,66.6,62.3,29.96,SSE,158,0.0,0.7,86,2.59,,,0.40,WUHU216HW,2013-08-29 05:56:00,
2013-08-29 02:01:00,66.6,62.3,29.96,SSE,158,0.9,0.9,86,2.59,,,0.61,WUHU216HW,2013-08-29 06:01:00,
2013-08-29 02:06:00,66.6,62.3,29.97,SE,135,0.0,1.1,86,2.59,,,0.61,WUHU216HW,2013-08-29 06:06:00,
2013-08-29 02:11:00,66.6,62.3,29.97,SE,135,0.0,1.1,86,2.59,,,0.61,WUHU216HW,2013-08-29 06:11:00,
2013-08-29 02:16:00,66.6,61.9,29.97,SE,135,0.0,0.0,85,2.59,,,0.61,WUHU216HW,2013-08-29 06:16:00,
2013-08-29 02:21:00,66.2,61.6,29.97,SE,135,0.0,0.0,85,2.59,,,0.61,WUHU216HW,2013-08-29 06:21:00,
2013-08-29 02:26:00,66.2,61.9,29.97,SE,135,0.0,0.0,86,2.59,,,0.61,WUHU216HW,2013-08-29 06:26:00,
2013-08-29 02:31:00,66.1,61.8,29.97,SE,135,0.0,0.0,86,2.59,,,0.61,WUHU216HW,2013-08-29 06:31:00,
2013-08-29 02:36:00,66.1,61.8,29.97,SE,135,0.0,0.0,86,2.59,,,0.61,WUHU216HW,2013-08-29 06:36:00,
2013-08-29 02:41:00,66.1,61.8,29.97,SE,135,0.0,0.0,86,2.59,,,0.61,WUHU216HW,2013-08-29 06:41:00,
2013-08-29 02:46:00,65.9,61.6,29.97,SE,135,0.0,0.0,86,2.59,,,0.61,WUHU216HW,2013-08-29 06:46:00,
2013-08-29 02:51:00,65.9,61.6,29.97,SE,135,0.0,0.0,86,2.59,,,0.61,WUHU216HW,2013-08-29 06:51:00,
2013-08-29 02:56:00,65.9,61.6,29.98,SE,135,0.0,0.0,86,2.59,,,0.61,WUHU216HW,2013-08-29 06:56:00,
2013-08-29 03:01:00,65.7,61.4,29.98,SE,135,0.0,0.0,86,2.59,,,0.81,WUHU216HW,2013-08-29 07:01:00,
2013-08-29 03:06:00,65.7,61.4,29.98,ESE,113,0.0,0.0,86,2.59,,,0.81,WUHU216HW,2013-08-29 07:06:00,
2013-08-29 03:11:00,65.7,61.4,29.98,East,90,0.0,0.0,86,2.59,,,0.81,WUHU216HW,2013-08-29 07:11:00,
2013-08-29 03:16:00,65.5,61.2,29.98,East,90,0.0,0.0,86,2.59,,,0.81,WUHU216HW,2013-08-29 07:16:00,
2013-08-29 03:21:00,65.5,61.2,29.98,East,90,0.0,0.0,86,2.59,,,0.81,WUHU216HW,2013-08-29 07:21:00,
2013-08-29 03:26:00,65.5,61.2,29.98,East,90,0.0,0.0,86,2.59,,,0.81,WUHU216HW,2013-08-29 07:26:00,
2013-08-29 03:31:00,65.3,61.4,29.98,ESE,113,0.0,0.0,87,2.59,,,0.81,WUHU216HW,2013-08-29 07:31:00,
2013-08-29 03:36:00,65.3,61.4,29.98,ESE,113,0.0,0.0,87,2.59,,,0.81,WUHU216HW,2013-08-29 07:36:00,
2013-08-29 03:41:00,65.2,60.8,29.98,ESE,113,0.0,0.0,86,2.59,,,0.81,WUHU216HW,2013-08-29 07:41:00,
2013-08-29 03:46:00,65.2,60.8,29.98,ESE,113,0.0,0.0,86,2.59,,,0.81,WUHU216HW,2013-08-29 07:46:00,
2013-08-29 03:51:00,65.2,60.8,29.98,ESE,113,0.0,0.0,86,2.59,,,0.81,WUHU216HW,2013-08-29 07:51:00,
2013-08-29 03:56:00,65.2,60.8,29.98,ESE,113,0.0,0.0,86,2.59,,,0.81,WUHU216HW,2013-08-29 07:56:00,
2013-08-29 04:01:00,65.2,60.8,29.98,ESE,113,0.0,0.0,86,2.59,,,1.01,WUHU216HW,2013-08-29 08:01:00,
2013-08-29 04:06:00,65.2,60.8,29.98,ESE,113,0.0,0.0,86,2.59,,,1.01,WUHU216HW,2013-08-29 08:06:00,
2013-08-29 04:11:00,65.0,60.7,29.98,ESE,113,0.0,0.0,86,2.59,,,1.01,WUHU216HW,2013-08-29 08:11:00,
2013-08-29 04:16:00,65.0,60.7,29.98,ESE,113,0.0,0.0,86,2.59,,,1.01,WUHU216HW,2013-08-29 08:16:00,
2013-08-29 04:21:00,65.0,60.7,29.98,ESE,113,0.0,0.0,86,2.59,,,1.01,WUHU216HW,2013-08-29 08:21:00,
2013-08-29 04:26:00,64.8,60.6,29.98,East,90,0.0,0.0,86,2.59,,,1.01,WUHU216HW,2013-08-29 08:26:00,
2013-08-29 04:31:00,64.8,60.6,29.98,East,90,0.0,0.0,86,2.59,,,1.01,WUHU216HW,2013-08-29 08:31:00,
2013-08-29 04:36:00,64.6,60.4,29.98,SE,135,0.0,0.0,86,2.59,,,1.01,WUHU216HW,2013-08-29 08:36:00,
2013-08-29 04:41:00,64.6,60.4,29.98,SE,135,0.0,0.0,86,2.59,,,1.01,WUHU216HW,2013-08-29 08:41:00,
2013-08-29 04:46:00,64.6,60.4,29.98,SE,135,0.0,0.0,86,2.59,,,1.01,WUHU216HW,2013-08-29 08:46:00,
2013-08-29 04:51:00,64.4,60.6,29.99,ESE,113,0.0,0.0,87,2.59,,,1.01,WUHU216HW,2013-08-29 08:51:00,
2013-08-29 04:56:00,64.4,60.2,29.99,ESE,113,0.0,0.0,86,2.59,,,1.01,WUHU216HW,2013-08-29 08:56:00,
2013-08-29 05:01:00,64.4,60.2,29.99,ESE,113,0.0,0.0,86,2.59,,,1.22,WUHU216HW,2013-08-29 09:01:00,
2013-08-29 05:06:00,64.4,60.6,29.99,ESE,113,0.0,0.0,87,2.59,,,1.22,WUHU216HW,2013-08-29 09:06:00,
2013-08-29 05:11:00,64.4,60.6,29.99,East,90,0.0,0.0,87,2.59,,,1.22,WUHU216HW,2013-08-29 09:11:00,
2013-08-29 05:16:00,64.3,60.4,29.99,ESE,113,0.0,0.0,87,2.59,,,1.22,WUHU216HW,2013-08-29 09:16:00,
2013-08-29 05:21:00,64.3,60.4,29.99,ESE,113,0.0,0.0,87,2.59,,,1.22,WUHU216HW,2013-08-29 09:21:00,
2013-08-29 05:26:00,64.1,59.9,29.99,ESE,113,0.0,0.0,86,2.59,,,1.22,WUHU216HW,2013-08-29 09:26:00,
2013-08-29 05:31:00,63.9,59.7,29.99,ESE,113,0.0,0.0,86,2.59,,,1.22,WUHU216HW,2013-08-29 09:31:00,
2013-08-29 05:36:00,63.9,60.0,29.99,ESE,113,0.0,0.0,87,2.59,,,1.22,WUHU216HW,2013-08-29 09:36:00,
2013-08-29 05:41:00,63.9,60.0,29.99,ESE,113,0.0,0.0,87,2.59,,,1.22,WUHU216HW,2013-08-29 09:41:00,
2013-08-29 05:46:00,63.9,60.0,29.99,ESE,113,0.0,0.0,87,2.59,,,1.22,WUHU216HW,2013-08-29 09:46:00,
2013-08-29 05:51:00,63.7,59.9,29.99,ESE,113,0.0,0.0,87,2.59,,,1.22,WUHU216HW,2013-08-29 09:51:00,
2013-08-29 05:56:00,63.7,59.9,29.99,ESE,113,0.0,0.0,87,2.59,,,1.22,WUHU216HW,2013-08-29 09:56:00,
2013-08-29 06:01:00,63.7,59.9,29.99,ESE,113,0.0,0.0,87,2.59,,,1.42,WUHU216HW,2013-08-29 10:01:00,
2013-08-29 06:06:00,63.7,59.9,29.99,East,90,0.0,0.0,87,2.59,,,1.42,WUHU216HW,2013-08-29 10:06:00,
2013-08-29 06:11:00,63.7,59.9,29.99,East,90,0.0,0.0,87,2.59,,,1.42,WUHU216HW,2013-08-29 10:11:00,
2013-08-29 06:16:00,63.4,59.5,30.00,East,90,0.0,0.0,87,2.59,,,1.42,WUHU216HW,2013-08-29 10:16:00,
2013-08-29 06:21:00,63.4,59.5,30.00,East,90,0.0,0.0,87,2.59,,,1.42,WUHU216HW,2013-08-29 10:21:00,
2013-08-29 06:26:00,63.0,59.1,30.00,East,90,0.0,0.0,87,2.59,,,1.42,WUHU216HW,2013-08-29 10:26:00,
2013-08-29 06:31:00,63.0,59.1,30.01,East,90,0.0,0.0,87,2.59,,,1.42,WUHU216HW,2013-08-29 10:31:00,
2013-08-29 06:36:00,63.0,59.1,30.01,East,90,0.0,0.0,87,2.59,,,1.42,WUHU216HW,2013-08-29 10:36:00,
2013-08-29 06:41:00,63.0,59.1,30.01,East,90,0.0,0.0,87,2.59,,,1.42,WUHU216HW,2013-08-29 10:41:00,
2013-08-29 06:46:00,62.8,59.0,30.01,East,90,0.0,0.0,87,2.59,,,1.42,WUHU216HW,2013-08-29 10:46:00,
2013-08-29 06:51:00,63.0,59.1,30.01,East,90,0.0,0.0,87,2.59,,,1.42,WUHU216HW,2013-08-29 10:51:00,
2013-08-29 06:56:00,63.0,59.1,30.01,East,90,0.0,0.0,87,2.59,,,1.42,WUHU216HW,2013-08-29 10:56:00,
2013-08-29 07:01:00,63.0,59.1,30.01,SE,135,0.0,0.0,87,2.59,,,1.62,WUHU216HW,2013-08-29 11:01:00,
2013-08-29 07:06:00,63.0,59.1,30.01,SE,135,0.0,0.0,87,2.59,,,1.62,WUHU216HW,2013-08-29 11:06:00,
2013-08-29 07:11:00,63.0,59.1,30.02,SE,135,0.0,0.0,87,2.59,,,1.62,WUHU216HW,2013-08-29 11:11:00,
2013-08-29 07:16:00,63.0,59.4,30.02,SE,135,0.0,0.0,88,2.59,,,1.62,WUHU216HW,2013-08-29 11:16:00,
2013-08-29 07:21:00,63.2,59.6,30.02,SE,135,0.0,0.0,88,2.59,,,1.62,WUHU216HW,2013-08-29 11:21:00,
2013-08-29 07:26:00,63.2,59.6,30.02,SE,135,0.0,0.0,88,2.59,,,1.62,WUHU216HW,2013-08-29 11:26:00,
2013-08-29 07:31:00,63.2,59.6,30.02,SE,135,0.0,0.0,88,2.59,,,1.62,WUHU216HW,2013-08-29 11:31:00,
2013-08-29 07:36:00,63.2,59.6,30.02,SE,135,0.0,0.0,88,2.59,,,1.62,WUHU216HW,2013-08-29 11:36:00,
2013-08-29 07:41:00,63.4,59.8,30.02,SE,135,0.0,0.0,88,2.59,,,1.62,WUHU216HW,2013-08-29 11:41:00,
2013-08-29 07:46:00,63.4,59.8,30.02,SSE,158,0.0,0.0,88,2.59,,,1.62,WUHU216HW,2013-08-29 11:46:00,
2013-08-29 07:51:00,63.4,59.8,30.03,NW,315,0.0,0.0,88,2.59,,,1.62,WUHU216HW,2013-08-29 11:51:00,
2013-08-29 07:56:00,63.4,60.1,30.03,West,270,0.0,0.0,89,2.59,,,1.62,WUHU216HW,2013-08-29 11:56:00,
2013-08-29 08:01:00,63.5,60.3,30.03,SSW,203,0.0,0.0,89,2.59,,,1.83,WUHU216HW,2013-08-29 12:01:00,
2013-08-29 08:06:00,63.7,60.5,30.03,SW,225,0.0,0.0,89,2.59,,,1.83,WUHU216HW,2013-08-29 12:06:00,
2013-08-29 08:11:00,64.1,60.8,30.03,West,270,0.0,0.0,89,2.59,,,1.83,WUHU216HW,2013-08-29 12:11:00,
2013-08-29 08:16:00,64.4,61.2,30.04,South,180,0.0,0.0,89,2.59,,,1.83,WUHU216HW,2013-08-29 12:16:00,
2013-08-29 08:21:00,64.6,61.4,30.04,SSE,158,0.0,0.0,89,2.59,,,1.83,WUHU216HW,2013-08-29 12:21:00,
2013-08-29 08:26:00,64.8,61.9,30.04,WSW,248,0.0,0.0,90,2.59,,,1.83,WUHU216HW,2013-08-29 12:26:00,
2013-08-29 08:31:00,65.2,62.2,30.04,SSW,203,0.0,0.0,90,2.59,,,1.83,WUHU216HW,2013-08-29 12:31:00,
2013-08-29 08:36:00,65.7,62.7,30.04,WSW,248,0.0,0.0,90,2.59,,,1.83,WUHU216HW,2013-08-29 12:36:00,
2013-08-29 08:41:00,65.9,63.2,30.04,WNW,293,0.0,0.0,91,2.59,,,1.83,WUHU216HW,2013-08-29 12:41:00,
2013-08-29 08:46:00,66.2,63.5,30.04,WSW,248,0.0,0.0,91,2.59,,,1.83,WUHU216HW,2013-08-29 12:46:00,
2013-08-29 08:51:00,66.8,64.0,30.04,West,270,0.0,0.0,91,2.59,,,1.83,WUHU216HW,2013-08-29 12:51:00,
2013-08-29 08:56:00,67.0,64.2,30.04,WNW,293,0.0,0.0,91,2.59,,,1.83,WUHU216HW,2013-08-29 12:56:00,
2013-08-29 09:01:00,67.3,64.5,30.04,SSW,203,0.0,0.0,91,2.59,,,2.03,WUHU216HW,2013-08-29 13:01:00,
2013-08-29 09:06:00,67.9,65.1,30.04,SSE,158,0.0,0.0,91,2.59,,,2.03,WUHU216HW,2013-08-29 13:06:00,
2013-08-29 09:11:00,68.2,65.4,30.04,South,180,0.0,0.0,91,2.59,,,2.03,WUHU216HW,2013-08-29 13:11:00,
2013-08-29 09:16:00,68.6,65.8,30.04,ESE,113,0.0,0.0,91,2.59,,,2.03,WUHU216HW,2013-08-29 13:16:00,
2013-08-29 09:21:00,68.9,66.2,30.04,ESE,113,0.0,0.0,91,2.59,,,2.03,WUHU216HW,2013-08-29 13:21:00,
2013-08-29 09:26:00,69.3,66.9,30.04,SE,135,0.0,0.0,92,2.59,,,2.03,WUHU216HW,2013-08-29 13:26:00,
2013-08-29 09:31:00,69.7,67.2,30.04,WNW,293,0.0,0.0,92,2.59,,,2.03,WUHU216HW,2013-08-29 13:31:00,
2013-08-29 09:36:00,69.8,67.1,30.04,West,270,0.0,0.0,91,2.59,,,2.03,WUHU216HW,2013-08-29 13:36:00,
2013-08-29 09:41:00,70.4,67.6,30.04,SE,135,0.0,0.0,91,2.59,,,2.03,WUHU216HW,2013-08-29 13:41:00,
2013-08-29 09:46:00,70.9,68.1,30.04,NE,45,0.0,0.0,91,2.59,,,2.03,WUHU216HW,2013-08-29 13:46:00,
2013-08-29 09:51:00,71.1,68.3,30.04,NNW,338,0.0,0.0,91,2.59,,,2.03,WUHU216HW,2013-08-29 13:51:00,
2013-08-29 09:56:00,71.5,68.7,30.04,SSE,158,0.0,0.0,91,2.59,,,2.03,WUHU216HW,2013-08-29 13:56:00,
2013-08-29 10:01:00,71.8,69.0,30.04,East,90,0.0,0.0,91,2.59,,,2.23,WUHU216HW,2013-08-29 14:01:00,
2013-08-29 10:06:00,72.4,69.3,30.04,NNW,338,0.0,0.0,90,2.59,,,2.23,WUHU216HW,2013-08-29 14:06:00,
2013-08-29 10:11:00,72.7,69.7,30.04,NE,45,0.0,0.0,90,2.59,,,2.23,WUHU216HW,2013-08-29 14:11:00,
2013-08-29 10:16:00,73.1,69.7,30.04,WNW,293,0.0,0.0,89,2.59,,,2.23,WUHU216HW,2013-08-29 14:16:00,
2013-08-29 10:21:00,73.4,70.4,30.04,WSW,248,0.0,0.0,90,2.59,,,2.23,WUHU216HW,2013-08-29 14:21:00,
2013-08-29 10:26:00,74.0,70.6,30.05,WNW,293,0.0,0.0,89,2.59,,,2.23,WUHU216HW,2013-08-29 14:26:00,
2013-08-29 10:31:00,74.3,70.9,30.05,NNW,338,0.0,0.0,89,2.59,,,2.23,WUHU216HW,2013-08-29 14:31:00,
2013-08-29 10:36:00,74.9,70.8,30.05,NNW,338,0.0,0.0,87,2.59,,,2.23,WUHU216HW,2013-08-29 14:36:00,
2013-08-29 10:41:00,75.2,70.8,30.05,NNE,23,0.0,0.0,86,2.59,,,2.23,WUHU216HW,2013-08-29 14:41:00,
2013-08-29 10:46:00,75.6,70.8,30.05,ESE,113,0.0,0.0,85,2.59,,,2.23,WUHU216HW,2013-08-29 14:46:00,
2013-08-29 10:51:00,76.1,71.0,30.04,SE,135,0.0,0.0,84,2.59,,,2.23,WUHU216HW,2013-08-29 14:51:00,
2013-08-29 10:56:00,76.7,71.1,30.04,NNW,338,0.0,0.0,83,2.59,,,2.23,WUHU216HW,2013-08-29 14:56:00,
2013-08-29 11:01:00,77.2,71.3,30.04,SSE,158,0.0,0.0,82,2.59,,,2.43,WUHU216HW,2013-08-29 15:01:00,
2013-08-29 11:06:00,77.8,71.5,30.04,West,270,0.0,0.0,81,2.59,,,2.43,WUHU216HW,2013-08-29 15:06:00,
2013-08-29 11:11:00,78.1,71.5,30.04,East,90,0.0,0.0,80,2.59,,,2.43,WUHU216HW,2013-08-29 15:11:00,
2013-08-29 11:16:00,78.7,71.7,30.04,NE,45,0.0,0.0,79,2.59,,,2.43,WUHU216HW,2013-08-29 15:16:00,
2013-08-29 11:21:00,79.0,71.6,30.04,NE,45,0.0,0.4,78,2.59,,,2.43,WUHU216HW,2013-08-29 15:21:00,
2013-08-29 11:26:00,79.2,71.4,30.04,South,180,0.0,1.1,77,2.59,,,2.43,WUHU216HW,2013-08-29 15:26:00,
2013-08-29 11:31:00,79.6,71.3,30.04,East,90,0.0,1.1,76,2.59,,,2.43,WUHU216HW,2013-08-29 15:31:00,
2013-08-29 11:36:00,79.9,71.3,30.04,East,90,0.2,3.8,75,2.59,,,2.43,WUHU216HW,2013-08-29 15:36:00,
2013-08-29 11:41:00,80.1,71.1,30.04,SE,135,2.2,3.8,74,2.59,,,2.43,WUHU216HW,2013-08-29 15:41:00,
2013-08-29 11:46:00,80.3,70.8,30.04,ENE,68,1.8,3.4,73,2.59,,,2.43,WUHU216HW,2013-08-29 15:46:00,
2013-08-29 11:51:00,80.8,70.6,30.04,East,90,0.4,3.4,71,2.59,,,2.43,WUHU216HW,2013-08-29 15:51:00,
2013-08-29 11:56:00,81.9,71.2,30.04,ESE,113,2.2,6.7,70,2.59,,,2.43,WUHU216HW,2013-08-29 15:56:00,
2013-08-29 12:01:00,82.8,71.6,30.04,South,180,1.1,6.7,69,2.59,,,2.64,WUHU216HW,2013-08-29 16:01:00,
2013-08-29 12:06:00,83.3,72.1,30.05,NNE,23,2.9,4.5,69,2.59,,,2.64,WUHU216HW,2013-08-29 16:06:00,
2013-08-29 12:11:00,83.9,71.7,30.05,North,0,2.5,4.5,67,2.59,,,2.64,WUHU216HW,2013-08-29 16:11:00,
2013-08-29 12:16:00,84.2,72.1,30.05,NNE,23,1.8,3.4,67,2.59,,,2.64,WUHU216HW,2013-08-29 16:16:00,
2013-08-29 12:21:00,84.4,72.3,30.05,NE,45,3.1,5.4,67,2.59,,,2.64,WUHU216HW,2013-08-29 16:21:00,
2013-08-29 12:26:00,85.0,72.4,30.04,NNE,23,1.6,5.4,66,2.59,,,2.64,WUHU216HW,2013-08-29 16:26:00,
2013-08-29 12:31:00,85.3,71.7,30.05,ESE,113,6.0,6.0,64,2.59,,,2.64,WUHU216HW,2013-08-29 16:31:00,
2013-08-29 12:36:00,86.0,72.0,30.05,ENE,68,1.8,6.9,63,2.59,,,2.64,WUHU216HW,2013-08-29 16:36:00,
2013-08-29 12:41:00,86.2,71.6,30.05,SE,135,1.8,6.9,62,2.59,,,2.64,WUHU216HW,2013-08-29 16:41:00,
2013-08-29 12:46:00,85.7,71.2,30.04,ENE,68,4.0,6.9,62,2.59,,,2.64,WUHU216HW,2013-08-29 16:46:00,
2013-08-29 12:51:00,85.0,70.5,30.04,North,0,1.6,6.3,62,2.59,,,2.64,WUHU216HW,2013-08-29 16:51:00,
2013-08-29 12:56:00,85.0,70.5,30.04,North,0,0.0,4.0,62,2.59,,,2.64,WUHU216HW,2013-08-29 16:56:00,
2013-08-29 13:01:00,85.5,70.1,30.04,North,0,0.0,1.6,60,2.59,,,2.84,WUHU216HW,2013-08-29 17:01:00,
2013-08-29 13:05:00,85.9,69.8,30.04,North,0,0.0,0.0,59,2.59,,,2.84,WUHU216HW,2013-08-29 17:05:00,
2013-08-29 13:10:00,85.9,69.8,30.04,North,0,0.0,0.0,59,2.59,,,2.84,WUHU216HW,2013-08-29 17:10:00,
2013-08-29 13:15:00,86.0,69.5,30.04,North,0,0.0,0.0,58,2.59,,,2.84,WUHU216HW,2013-08-29 17:15:00,
2013-08-29 13:20:00,86.8,70.2,30.04,North,0,0.0,0.0,58,2.59,,,2.84,WUHU216HW,2013-08-29 17:20:00,
2013-08-29 13:25:00,87.5,69.8,30.04,North,0,0.0,0.0,56,2.59,,,2.84,WUHU216HW,2013-08-29 17:25:00,
2013-08-29 13:30:00,88.0,69.9,30.04,North,0,0.0,0.0,55,2.59,,,2.84,WUHU216HW,2013-08-29 17:30:00,
2013-08-29 13:35:00,88.2,70.6,30.04,North,0,0.0,0.0,56,2.59,,,2.84,WUHU216HW,2013-08-29 17:35:00,
2013-08-29 13:40:00,88.0,70.4,30.03,North,0,0.0,0.0,56,2.59,,,2.84,WUHU216HW,2013-08-29 17:40:00,
2013-08-29 13:45:00,87.8,69.1,30.04,North,0,0.0,0.0,54,2.59,,,2.84,WUHU216HW,2013-08-29 17:45:00,
2013-08-29 13:50:00,87.8,69.7,30.03,North,0,0.0,0.0,55,2.59,,,2.84,WUHU216HW,2013-08-29 17:50:00,
2013-08-29 13:55:00,88.2,70.0,30.03,North,0,0.0,0.0,55,2.59,,,2.84,WUHU216HW,2013-08-29 17:55:00,
2013-08-29 14:00:00,88.4,69.6,30.03,North,0,0.0,0.0,54,2.59,,,3.04,WUHU216HW,2013-08-29 18:00:00,
2013-08-29 14:05:00,88.4,70.1,30.03,North,0,0.0,0.0,55,2.59,,,3.04,WUHU216HW,2013-08-29 18:05:00,
2013-08-29 14:10:00,88.7,69.9,30.03,ESE,113,3.4,3.6,54,2.59,,,3.04,WUHU216HW,2013-08-29 18:10:00,
2013-08-29 14:15:00,89.3,70.9,30.03,ESE,113,4.3,4.3,55,2.59,,,3.04,WUHU216HW,2013-08-29 18:15:00,
2013-08-29 14:20:00,89.6,70.7,30.03,ENE,68,1.3,4.7,54,2.59,,,3.04,WUHU216HW,2013-08-29 18:20:00,
2013-08-29 14:25:00,89.3,69.8,30.03,ENE,68,1.1,5.1,53,2.59,,,3.04,WUHU216HW,2013-08-29 18:25:00,
2013-08-29 14:30:00,89.1,69.8,30.03,ENE,68,2.5,5.1,53,2.59,,,3.04,WUHU216HW,2013-08-29 18:30:00,
2013-08-29 14:35:00,89.5,68.9,30.03,NNW,338,1.8,5.1,51,2.59,,,3.04,WUHU216HW,2013-08-29 18:35:00,
2013-08-29 14:40:00,89.8,68.8,30.02,North,0,0.7,4.7,50,2.59,,,3.04,WUHU216HW,2013-08-29 18:40:00,
2013-08-29 14:45:00,90.5,69.4,30.02,ENE,68,1.8,5.4,50,2.59,,,3.04,WUHU216HW,2013-08-29 18:45:00,
2013-08-29 14:50:00,90.9,69.0,30.02,SW,225,1.1,5.4,49,2.59,,,3.04,WUHU216HW,2013-08-29 18:50:00,
2013-08-29 14:55:00,90.9,69.0,30.02,SE,135,3.1,4.7,49,2.59,,,3.04,WUHU216HW,2013-08-29 18:55:00,
2013-08-29 15:00:00,91.3,70.0,30.02,ENE,68,5.4,6.7,50,2.59,,,3.25,WUHU216HW,2013-08-29 19:00:00,
2013-08-29 15:05:00,91.1,69.2,30.02,WSW,248,1.8,6.7,49,2.59,,,3.25,WUHU216HW,2013-08-29 19:05:00,
2013-08-29 15:10:00,90.4,68.6,30.02,NNW,338,0.9,5.8,49,2.59,,,3.25,WUHU216HW,2013-08-29 19:10:00,
2013-08-29 15:15:00,90.4,68.6,30.02,ENE,68,3.1,4.3,49,2.59,,,3.25,WUHU216HW,2013-08-29 19:15:00,
2013-08-29 15:20:00,90.9,69.8,30.02,NE,45,0.9,3.1,50,2.59,,,3.25,WUHU216HW,2013-08-29 19:20:00,
2013-08-29 15:25:00,91.6,69.8,30.02,SE,135,3.6,3.6,49,2.59,,,3.25,WUHU216HW,2013-08-29 19:25:00,
2013-08-29 15:30:00,92.3,70.4,30.02,SSE,158,1.8,4.3,49,2.59,,,3.25,WUHU216HW,2013-08-29 19:30:00,
2013-08-29 15:35:00,92.3,69.8,30.02,NE,45,1.8,5.1,48,2.59,,,3.25,WUHU216HW,2013-08-29 19:35:00,
2013-08-29 15:40:00,92.0,69.4,30.02,NNW,338,3.4,5.1,48,2.59,,,3.25,WUHU216HW,2013-08-29 19:40:00,
2013-08-29 15:45:00,91.4,69.6,30.02,West,270,1.3,4.9,49,2.59,,,3.25,WUHU216HW,2013-08-29 19:45:00,
2013-08-29 15:50:00,91.8,70.6,30.02,ENE,68,4.7,8.3,50,2.59,,,3.25,WUHU216HW,2013-08-29 19:50:00,
2013-08-29 15:55:00,92.0,70.7,30.02,ENE,68,3.4,8.3,50,2.59,,,3.25,WUHU216HW,2013-08-29 19:55:00,
2013-08-29 16:00:00,92.3,71.6,30.02,ESE,113,3.8,6.3,51,2.59,,,3.45,WUHU216HW,2013-08-29 20:00:00,
2013-08-29 16:05:00,92.7,71.9,30.02,NE,45,3.6,7.8,51,2.59,,,3.45,WUHU216HW,2013-08-29 20:05:00,
2013-08-29 16:10:00,92.9,71.5,30.02,NE,45,4.7,7.8,50,2.59,,,3.45,WUHU216HW,2013-08-29 20:10:00,
2013-08-29 16:15:00,92.2,70.2,30.02,SE,135,2.0,4.9,49,2.59,,,3.45,WUHU216HW,2013-08-29 20:15:00,
2013-08-29 16:20:00,91.6,70.9,30.02,NE,45,4.0,5.4,51,2.59,,,3.45,WUHU216HW,2013-08-29 20:20:00,
2013-08-29 16:25:00,91.4,70.7,30.02,NNE,23,3.4,5.4,51,2.59,,,3.45,WUHU216HW,2013-08-29 20:25:00,
2013-08-29 16:30:00,91.4,70.7,30.02,NNW,338,0.9,5.1,51,2.59,,,3.45,WUHU216HW,2013-08-29 20:30:00,
2013-08-29 16:35:00,91.6,70.4,30.02,ESE,113,2.9,4.3,50,2.59,,,3.45,WUHU216HW,2013-08-29 20:35:00,
2013-08-29 16:40:00,91.8,71.1,30.02,NE,45,3.8,4.7,51,2.59,,,3.45,WUHU216HW,2013-08-29 20:40:00,
2013-08-29 16:45:00,92.0,71.2,30.02,NE,45,3.8,4.7,51,2.59,,,3.45,WUHU216HW,2013-08-29 20:45:00,
2013-08-29 16:50:00,91.8,70.6,30.02,NNE,23,4.0,4.3,50,2.59,,,3.45,WUHU216HW,2013-08-29 20:50:00,
2013-08-29 16:55:00,91.4,70.7,30.02,ENE,68,1.3,4.7,51,2.59,,,3.45,WUHU216HW,2013-08-29 20:55:00,
2013-08-29 17:00:00,91.1,70.4,30.02,ENE,68,2.9,4.7,51,2.59,,,3.45,WUHU216HW,2013-08-29 21:00:00,
2013-08-29 17:05:00,90.9,70.3,30.02,NE,45,4.0,5.4,51,2.59,,,3.65,WUHU216HW,2013-08-29 21:05:00,
2013-08-29 17:10:00,90.9,70.8,30.02,NE,45,3.1,5.4,52,2.59,,,3.65,WUHU216HW,2013-08-29 21:10:00,
2013-08-29 17:15:00,91.1,70.9,30.02,East,90,3.4,4.7,52,2.59,,,3.65,WUHU216HW,2013-08-29 21:15:00,
2013-08-29 17:20:00,91.3,70.6,30.02,NE,45,1.6,4.5,51,2.59,,,3.65,WUHU216HW,2013-08-29 21:20:00,
2013-08-29 17:25:00,91.4,71.3,30.02,East,90,2.0,5.6,52,2.59,,,3.65,WUHU216HW,2013-08-29 21:25:00,
2013-08-29 17:30:00,91.4,70.7,30.02,ENE,68,1.6,5.6,51,2.59,,,3.65,WUHU216HW,2013-08-29 21:30:00,
2013-08-29 17:35:00,91.3,71.1,30.02,East,90,2.5,4.0,52,2.59,,,3.65,WUHU216HW,2013-08-29 21:35:00,
2013-08-29 17:40:00,91.4,71.3,30.02,East,90,3.1,3.6,52,2.59,,,3.65,WUHU216HW,2013-08-29 21:40:00,
2013-08-29 17:45:00,91.3,71.1,30.02,East,90,0.7,3.6,52,2.59,,,3.65,WUHU216HW,2013-08-29 21:45:00,
2013-08-29 17:50:00,91.1,70.4,30.02,NNE,23,1.3,3.4,51,2.59,,,3.65,WUHU216HW,2013-08-29 21:50:00,
2013-08-29 17:55:00,90.7,70.1,30.02,ENE,68,2.0,3.4,51,2.59,,,3.65,WUHU216HW,2013-08-29 21:55:00,
2013-08-29 18:00:00,90.5,70.5,30.02,NE,45,1.1,4.5,52,2.59,,,3.65,WUHU216HW,2013-08-29 22:00:00,
2013-08-29 18:05:00,90.2,70.7,30.02,ENE,68,2.5,6.3,53,2.59,,,3.85,WUHU216HW,2013-08-29 22:05:00,
2013-08-29 18:10:00,89.8,70.4,30.02,East,90,5.8,6.3,53,2.59,,,3.85,WUHU216HW,2013-08-29 22:10:00,
2013-08-29 18:15:00,89.5,70.6,30.02,East,90,2.5,6.3,54,2.59,,,3.85,WUHU216HW,2013-08-29 22:15:00,
2013-08-29 18:20:00,89.3,70.4,30.02,ENE,68,3.4,5.8,54,2.59,,,3.85,WUHU216HW,2013-08-29 22:20:00,
2013-08-29 18:25:00,88.9,70.7,30.02,NE,45,2.9,5.8,55,2.59,,,3.85,WUHU216HW,2013-08-29 22:25:00,
2013-08-29 18:30:00,88.9,70.7,30.02,ESE,113,3.8,4.7,55,2.59,,,3.85,WUHU216HW,2013-08-29 22:30:00,
2013-08-29 18:35:00,88.7,70.5,30.02,East,90,3.6,5.1,55,2.59,,,3.85,WUHU216HW,2013-08-29 22:35:00,
2013-08-29 18:40:00,88.7,70.5,30.02,ESE,113,4.5,5.6,55,2.59,,,3.85,WUHU216HW,2013-08-29 22:40:00,
2013-08-29 18:45:00,88.4,70.7,30.02,East,90,3.4,5.6,56,2.59,,,3.85,WUHU216HW,2013-08-29 22:45:00,
2013-08-29 18:50:00,88.2,70.6,30.01,SE,135,4.5,5.1,56,2.59,,,3.85,WUHU216HW,2013-08-29 22:50:00,
2013-08-29 18:55:00,88.0,70.4,30.02,ENE,68,2.7,4.5,56,2.59,,,3.85,WUHU216HW,2013-08-29 22:55:00,
2013-08-29 19:00:00,87.7,70.0,30.02,East,90,4.0,4.5,56,2.59,,,3.85,WUHU216HW,2013-08-29 23:00:00,
2013-08-29 19:05:00,87.3,70.2,30.01,ENE,68,3.4,4.0,57,2.59,,,4.06,WUHU216HW,2013-08-29 23:05:00,
2013-08-29 19:10:00,86.9,69.8,30.01,ESE,113,2.5,4.0,57,2.59,,,4.06,WUHU216HW,2013-08-29 23:10:00,
2013-08-29 19:15:00,86.6,69.5,30.01,ESE,113,1.6,3.8,57,2.59,,,4.06,WUHU216HW,2013-08-29 23:15:00,
2013-08-29 19:20:00,86.2,69.7,30.01,ESE,113,2.0,3.6,58,2.59,,,4.06,WUHU216HW,2013-08-29 23:20:00,
2013-08-29 19:25:00,85.7,69.2,30.01,ESE,113,2.2,3.6,58,2.59,,,4.06,WUHU216HW,2013-08-29 23:25:00,
2013-08-29 19:30:00,85.3,69.4,30.01,ESE,113,2.5,3.4,59,2.59,,,4.06,WUHU216HW,2013-08-29 23:30:00,
2013-08-29 19:35:00,84.6,69.3,30.01,East,90,2.0,3.4,60,2.59,,,4.06,WUHU216HW,2013-08-29 23:35:00,
2013-08-29 19:40:00,83.7,68.9,30.01,ENE,68,1.8,2.7,61,2.59,,,4.06,WUHU216HW,2013-08-29 23:40:00,
2013-08-29 19:45:00,83.0,68.1,30.01,ESE,113,1.3,2.5,61,2.59,,,4.06,WUHU216HW,2013-08-29 23:45:00,
2013-08-29 19:50:00,82.1,67.7,30.01,SE,135,0.2,1.8,62,2.59,,,4.06,WUHU216HW,2013-08-29 23:50:00,
2013-08-29 19:55:00,81.7,67.9,30.01,ESE,113,0.7,1.8,63,2.59,,,4.06,WUHU216HW,2013-08-29 23:55:00,
2013-08-29 20:00:00,81.0,67.7,30.01,ESE,113,1.1,1.6,64,2.59,,,4.06,WUHU216HW,2013-08-30 00:00:00,
2013-08-29 20:05:00,80.6,67.8,30.01,ESE,113,0.0,1.6,65,2.59,,,4.26,WUHU216HW,2013-08-30 00:05:00,
2013-08-29 20:10:00,80.1,67.2,30.01,ESE,113,0.0,1.1,65,2.59,,,4.26,WUHU216HW,2013-08-30 00:10:00,
2013-08-29 20:15:00,79.7,67.3,30.01,ESE,113,0.0,0.0,66,2.59,,,4.26,WUHU216HW,2013-08-30 00:15:00,
2013-08-29 20:20:00,79.4,67.1,30.02,ESE,113,0.0,0.0,66,2.59,,,4.26,WUHU216HW,2013-08-30 00:20:00,
2013-08-29 20:25:00,79.2,67.2,30.01,ESE,113,0.0,0.0,67,2.59,,,4.26,WUHU216HW,2013-08-30 00:25:00,
2013-08-29 20:30:00,78.8,67.0,30.01,ESE,113,0.0,0.0,67,2.59,,,4.26,WUHU216HW,2013-08-30 00:30:00,
2013-08-29 20:35:00,78.5,67.1,30.01,ESE,113,0.0,0.0,68,2.59,,,4.26,WUHU216HW,2013-08-30 00:35:00,
2013-08-29 20:40:00,77.9,67.0,30.02,ESE,113,0.0,0.0,69,2.59,,,4.26,WUHU216HW,2013-08-30 00:40:00,
2013-08-29 20:45:00,77.4,66.5,30.02,ESE,113,0.0,0.0,69,2.59,,,4.26,WUHU216HW,2013-08-30 00:45:00,
2013-08-29 20:50:00,77.2,66.8,30.02,ESE,113,0.0,0.0,70,2.59,,,4.26,WUHU216HW,2013-08-30 00:50:00,
2013-08-29 20:55:00,76.9,66.8,30.02,ESE,113,0.0,0.0,71,2.59,,,4.26,WUHU216HW,2013-08-30 00:55:00,
2013-08-29 21:00:00,76.7,66.6,30.02,ESE,113,0.0,0.0,71,2.59,,,4.26,WUHU216HW,2013-08-30 01:00:00,
2013-08-29 21:05:00,76.3,66.2,30.03,ESE,113,0.0,0.0,71,2.59,,,4.46,WUHU216HW,2013-08-30 01:05:00,
2013-08-29 21:10:00,76.0,65.9,30.03,ESE,113,0.0,0.0,71,2.59,,,4.46,WUHU216HW,2013-08-30 01:10:00,
2013-08-29 21:15:00,75.8,66.2,30.03,ESE,113,0.0,0.0,72,2.59,,,4.46,WUHU216HW,2013-08-30 01:15:00,
2013-08-29 21:20:00,75.4,65.8,30.03,SE,135,0.0,0.0,72,2.59,,,4.46,WUHU216HW,2013-08-30 01:20:00,
2013-08-29 21:25:00,75.1,65.4,30.03,WSW,248,0.0,0.0,72,2.59,,,4.46,WUHU216HW,2013-08-30 01:25:00,
2013-08-29 21:30:00,74.0,64.8,30.03,WNW,293,0.0,0.2,73,2.59,,,4.46,WUHU216HW,2013-08-30 01:30:00,
2013-08-29 21:35:00,73.3,64.9,30.03,WSW,248,0.0,0.2,75,2.59,,,4.46,WUHU216HW,2013-08-30 01:35:00,
2013-08-29 21:40:00,73.1,64.7,30.03,South,180,0.0,0.0,75,2.59,,,4.46,WUHU216HW,2013-08-30 01:40:00,
2013-08-29 21:45:00,73.1,64.7,30.03,SSE,158,0.0,0.2,75,2.59,,,4.46,WUHU216HW,2013-08-30 01:45:00,
2013-08-29 21:50:00,73.1,65.1,30.03,SSE,158,0.0,0.2,76,2.59,,,4.46,WUHU216HW,2013-08-30 01:50:00,
2013-08-29 21:55:00,72.9,64.9,30.03,SSE,158,0.0,0.0,76,2.59,,,4.46,WUHU216HW,2013-08-30 01:55:00,
2013-08-29 22:00:00,72.7,64.7,30.03,SSE,158,0.0,0.0,76,0.00,,,4.46,WUHU216HW,2013-08-30 02:00:00,
2013-08-29 22:05:00,72.5,64.5,30.03,SSE,158,0.0,0.0,76,2.59,,,4.67,WUHU216HW,2013-08-30 02:05:00,
2013-08-29 22:10:00,72.4,64.7,30.03,SSE,158,0.0,0.0,77,2.59,,,4.67,WUHU216HW,2013-08-30 02:10:00,
2013-08-29 22:15:00,72.2,64.2,30.03,SSE,158,0.0,0.0,76,2.59,,,4.67,WUHU216HW,2013-08-30 02:15:00,
2013-08-29 22:20:00,72.0,64.0,30.03,SSE,158,0.0,0.0,76,2.59,,,4.67,WUHU216HW,2013-08-30 02:20:00,
2013-08-29 22:25:00,71.8,64.2,30.03,SSE,158,0.0,0.0,77,2.59,,,4.67,WUHU216HW,2013-08-30 02:25:00,
2013-08-29 22:30:00,71.6,64.0,30.03,SE,135,0.0,0.0,77,2.59,,,4.67,WUHU216HW,2013-08-30 02:30:00,
2013-08-29 22:35:00,71.6,64.0,30.04,SE,135,0.0,0.0,77,2.59,,,4.67,WUHU216HW,2013-08-30 02:35:00,
2013-08-29 22:40:00,71.3,63.6,30.03,SE,135,0.0,0.0,77,2.59,,,4.67,WUHU216HW,2013-08-30 02:40:00,
2013-08-29 22:45:00,71.1,63.5,30.03,SE,135,0.0,0.0,77,2.59,,,4.67,WUHU216HW,2013-08-30 02:45:00,
2013-08-29 22:50:00,70.9,63.3,30.03,SE,135,0.0,0.0,77,2.59,,,4.67,WUHU216HW,2013-08-30 02:50:00,
2013-08-29 22:55:00,70.7,63.6,30.03,SE,135,0.0,0.0,78,2.59,,,4.67,WUHU216HW,2013-08-30 02:55:00,
2013-08-29 23:00:00,70.6,63.4,30.03,SE,135,0.0,0.0,78,0.00,,,4.67,WUHU216HW,2013-08-30 03:00:00,
2013-08-29 23:05:00,70.6,63.4,30.03,SE,135,0.0,0.0,78,2.59,,,4.87,WUHU216HW,2013-08-30 03:05:00,
2013-08-29 23:10:00,70.4,63.6,30.02,SE,135,0.0,0.0,79,2.59,,,4.87,WUHU216HW,2013-08-30 03:10:00,
2013-08-29 23:15:00,70.2,63.4,30.03,SE,135,0.0,0.0,79,2.59,,,4.87,WUHU216HW,2013-08-30 03:15:00,
2013-08-29 23:20:00,70.2,63.4,30.02,ESE,113,0.0,0.0,79,2.59,,,4.87,WUHU216HW,2013-08-30 03:20:00,
2013-08-29 23:25:00,69.8,63.0,30.02,ESE,113,0.0,0.0,79,2.59,,,4.87,WUHU216HW,2013-08-30 03:25:00,
2013-08-29 23:30:00,69.8,63.0,30.02,ESE,113,0.0,0.0,79,2.59,,,4.87,WUHU216HW,2013-08-30 03:30:00,
2013-08-29 23:35:00,69.8,63.4,30.02,ESE,113,0.0,0.0,80,2.59,,,4.87,WUHU216HW,2013-08-30 03:35:00,
2013-08-29 23:40:00,69.5,63.0,30.02,ESE,113,0.0,0.0,80,2.59,,,4.87,WUHU216HW,2013-08-30 03:40:00,
2013-08-29 23:45:00,69.3,62.9,30.02,NNW,338,0.0,0.0,80,2.59,,,4.87,WUHU216HW,2013-08-30 03:45:00,
2013-08-29 23:50:00,69.1,62.7,30.02,NNW,338,0.0,0.0,80,2.59,,,4.87,WUHU216HW,2013-08-30 03:50:00,
2013-08-29 23:55:00,68.8,62.4,30.02,NW,315,0.0,0.0,80,2.59,,,4.87,WUHU216HW,2013-08-30 03:55:00,